If you wish to contribute or participate in the discussions about articles you are invited to join SKYbrary as a registered user

 Actions

Semipalatinsk Airport

From SKYbrary Wiki

UASS
Airport
ICAO: UASS – IATA: PLX
Summary
Name Semipalatinsk Airport
Region Asia and Pacific
Territory Kazakhstan KZ.gif
Location Semey, Kazakhstan
Serving Semey
Elevation 222.809 m
731 ft
731 ft222.809 m
Coordinates 50° 21' 4.68" N, 80° 14' 3.84" E
Runways
Designator Length Width Surface ROPS
2/20 997 m3,270.997 ft
77 m252.625 ft
CON /
8/26 3096 m10,157.48 ft
44 m144.357 ft
CON /


METAR
Observation UASS 212330Z 12002MPS CAVOK 04/M02 Q1016 NOSIG RMK QFE744/0992
Station Semipalatinsk Airport
Date/Time 21 September 2019 23:30:00
Wind direction 120°
Wind speed kts
Lowest cloud amount clouds and visibility OK
Temperature 4°C
Dew point
Humidity 64%
QNH 1016 hPa
Weather condition n/a

Description

Semipalatinsk Airport (Semey) is an airport in Semipalatinsk, Kazakhstan located 10 km southwest of the city.